sensor_id;sensor_type;location;lat;lon;timestamp;P1;durP1;ratioP1;P2;durP2;ratioP2
20794;SDS011;28087;-33.874;151.240;2023-02-08T00:02:19;8.23;;;1.40;;
20794;SDS011;28087;-33.874;151.240;2023-02-08T00:04:56;6.20;;;1.70;;
20794;SDS011;28087;-33.874;151.240;2023-02-08T00:07:34;4.60;;;1.50;;
20794;SDS011;28087;-33.874;151.240;2023-02-08T00:10:10;7.78;;;1.45;;
20794;SDS011;28087;-33.874;151.240;2023-02-08T00:12:46;5.70;;;1.50;;
20794;SDS011;28087;-33.874;151.240;2023-02-08T00:15:26;5.57;;;1.40;;
20794;SDS011;28087;-33.874;151.240;2023-02-08T00:18:02;7.65;;;1.48;;
20794;SDS011;28087;-33.874;151.240;2023-02-08T00:20:38;6.93;;;1.30;;
20794;SDS011;28087;-33.874;151.240;2023-02-08T00:23:15;8.95;;;1.45;;
20794;SDS011;28087;-33.874;151.240;2023-02-08T00:25:49;6.65;;;1.30;;
20794;SDS011;28087;-33.874;151.240;2023-02-08T00:28:25;8.80;;;1.60;;
20794;SDS011;28087;-33.874;151.240;2023-02-08T00:31:00;6.40;;;1.40;;
20794;SDS011;28087;-33.874;151.240;2023-02-08T00:33:36;8.93;;;1.40;;
20794;SDS011;28087;-33.874;151.240;2023-02-08T00:36:11;5.95;;;1.55;;
20794;SDS011;28087;-33.874;151.240;2023-02-08T00:38:48;6.10;;;1.40;;
20794;SDS011;28087;-33.874;151.240;2023-02-08T00:41:23;8.82;;;1.70;;
20794;SDS011;28087;-33.874;151.240;2023-02-08T00:43:58;5.57;;;1.42;;
20794;SDS011;28087;-33.874;151.240;2023-02-08T00:46:33;7.00;;;1.40;;
20794;SDS011;28087;-33.874;151.240;2023-02-08T00:49:08;4.88;;;1.30;;
20794;SDS011;28087;-33.874;151.240;2023-02-08T00:51:45;7.18;;;1.52;;
20794;SDS011;28087;-33.874;151.240;2023-02-08T00:54:21;8.20;;;1.60;;
20794;SDS011;28087;-33.874;151.240;2023-02-08T00:56:56;6.47;;;1.58;;
20794;SDS011;28087;-33.874;151.240;2023-02-08T00:59:31;9.43;;;1.42;;
20794;SDS011;28087;-33.874;151.240;2023-02-08T01:02:06;6.18;;;1.48;;
20794;SDS011;28087;-33.874;151.240;2023-02-08T01:04:41;9.65;;;1.50;;
20794;SDS011;28087;-33.874;151.240;2023-02-08T01:07:16;5.35;;;1.40;;
20794;SDS011;28087;-33.874;151.240;2023-02-08T01:09:52;6.00;;;1.50;;
20794;SDS011;28087;-33.874;151.240;2023-02-08T01:12:28;7.70;;;1.58;;
20794;SDS011;28087;-33.874;151.240;2023-02-08T01:15:03;7.97;;;1.58;;
20794;SDS011;28087;-33.874;151.240;2023-02-08T01:17:39;5.28;;;1.52;;
20794;SDS011;28087;-33.874;151.240;2023-02-08T01:20:14;5.85;;;1.30;;
20794;SDS011;28087;-33.874;151.240;2023-02-08T01:22:49;6.43;;;1.48;;
20794;SDS011;28087;-33.874;151.240;2023-02-08T01:25:25;6.97;;;1.60;;
20794;SDS011;28087;-33.874;151.240;2023-02-08T01:28:00;5.65;;;1.45;;
20794;SDS011;28087;-33.874;151.240;2023-02-08T01:30:36;7.47;;;1.60;;
20794;SDS011;28087;-33.874;151.240;2023-02-08T01:33:11;7.82;;;1.50;;
20794;SDS011;28087;-33.874;151.240;2023-02-08T01:35:48;7.38;;;1.48;;
20794;SDS011;28087;-33.874;151.240;2023-02-08T01:38:24;7.50;;;1.65;;
20794;SDS011;28087;-33.874;151.240;2023-02-08T01:41:02;8.50;;;1.60;;
20794;SDS011;28087;-33.874;151.240;2023-02-08T01:46:29;10.50;;;1.70;;
20794;SDS011;28087;-33.874;151.240;2023-02-08T01:49:06;7.90;;;1.70;;
20794;SDS011;28087;-33.874;151.240;2023-02-08T01:51:44;5.43;;;1.60;;
20794;SDS011;28087;-33.874;151.240;2023-02-08T01:54:27;6.38;;;1.45;;
20794;SDS011;28087;-33.874;151.240;2023-02-08T01:57:07;6.43;;;1.73;;
20794;SDS011;28087;-33.874;151.240;2023-02-08T01:59:43;7.00;;;1.38;;
20794;SDS011;28087;-33.874;151.240;2023-02-08T02:02:24;5.50;;;1.55;;
20794;SDS011;28087;-33.874;151.240;2023-02-08T02:05:00;8.57;;;1.48;;
20794;SDS011;28087;-33.874;151.240;2023-02-08T02:07:35;7.80;;;1.55;;
20794;SDS011;28087;-33.874;151.240;2023-02-08T02:10:15;6.82;;;1.58;;
20794;SDS011;28087;-33.874;151.240;2023-02-08T02:13:00;7.60;;;1.80;;
20794;SDS011;28087;-33.874;151.240;2023-02-08T02:15:43;9.18;;;1.80;;
20794;SDS011;28087;-33.874;151.240;2023-02-08T02:18:21;7.40;;;1.52;;
20794;SDS011;28087;-33.874;151.240;2023-02-08T02:21:01;7.68;;;1.75;;
20794;SDS011;28087;-33.874;151.240;2023-02-08T02:26:39;7.78;;;1.90;;
20794;SDS011;28087;-33.874;151.240;2023-02-08T02:29:27;8.73;;;1.77;;
20794;SDS011;28087;-33.874;151.240;2023-02-08T02:32:16;8.63;;;1.63;;
20794;SDS011;28087;-33.874;151.240;2023-02-08T02:34:55;7.68;;;1.60;;
20794;SDS011;28087;-33.874;151.240;2023-02-08T02:37:39;6.47;;;1.52;;
20794;SDS011;28087;-33.874;151.240;2023-02-08T02:40:17;8.02;;;1.52;;
20794;SDS011;28087;-33.874;151.240;2023-02-08T02:42:57;5.65;;;1.58;;
20794;SDS011;28087;-33.874;151.240;2023-02-08T02:45:51;7.47;;;1.60;;
20794;SDS011;28087;-33.874;151.240;2023-02-08T02:48:31;5.10;;;1.35;;
20794;SDS011;28087;-33.874;151.240;2023-02-08T02:51:13;5.70;;;1.48;;
20794;SDS011;28087;-33.874;151.240;2023-02-08T02:53:51;7.60;;;1.70;;
20794;SDS011;28087;-33.874;151.240;2023-02-08T02:56:29;9.98;;;1.70;;
20794;SDS011;28087;-33.874;151.240;2023-02-08T02:59:11;7.57;;;1.60;;
20794;SDS011;28087;-33.874;151.240;2023-02-08T03:01:47;6.13;;;1.52;;
20794;SDS011;28087;-33.874;151.240;2023-02-08T03:07:15;6.63;;;1.65;;
20794;SDS011;28087;-33.874;151.240;2023-02-08T03:10:07;7.88;;;1.60;;
20794;SDS011;28087;-33.874;151.240;2023-02-08T03:12:55;5.93;;;1.65;;
20794;SDS011;28087;-33.874;151.240;2023-02-08T03:15:39;7.53;;;1.65;;
20794;SDS011;28087;-33.874;151.240;2023-02-08T03:18:25;7.93;;;1.60;;
20794;SDS011;28087;-33.874;151.240;2023-02-08T03:21:08;6.65;;;1.60;;
20794;SDS011;28087;-33.874;151.240;2023-02-08T03:23:48;7.07;;;1.67;;
20794;SDS011;28087;-33.874;151.240;2023-02-08T03:26:30;7.78;;;1.70;;
20794;SDS011;28087;-33.874;151.240;2023-02-08T03:29:09;9.75;;;1.70;;
20794;SDS011;28087;-33.874;151.240;2023-02-08T03:31:46;9.57;;;1.90;;
20794;SDS011;28087;-33.874;151.240;2023-02-08T03:34:23;8.55;;;1.95;;
20794;SDS011;28087;-33.874;151.240;2023-02-08T03:37:01;10.25;;;1.80;;
20794;SDS011;28087;-33.874;151.240;2023-02-08T03:39:40;12.43;;;2.20;;
20794;SDS011;28087;-33.874;151.240;2023-02-08T03:42:20;8.63;;;1.70;;
20794;SDS011;28087;-33.874;151.240;2023-02-08T03:44:57;9.70;;;1.67;;
20794;SDS011;28087;-33.874;151.240;2023-02-08T03:47:36;7.55;;;1.60;;
20794;SDS011;28087;-33.874;151.240;2023-02-08T03:50:13;9.60;;;1.90;;
20794;SDS011;28087;-33.874;151.240;2023-02-08T03:52:49;10.63;;;2.00;;
20794;SDS011;28087;-33.874;151.240;2023-02-08T03:55:27;9.82;;;2.13;;
20794;SDS011;28087;-33.874;151.240;2023-02-08T03:58:07;11.95;;;2.10;;
20794;SDS011;28087;-33.874;151.240;2023-02-08T04:00:44;12.65;;;2.35;;
20794;SDS011;28087;-33.874;151.240;2023-02-08T04:03:26;8.30;;;1.85;;
20794;SDS011;28087;-33.874;151.240;2023-02-08T04:06:01;8.57;;;1.98;;
20794;SDS011;28087;-33.874;151.240;2023-02-08T04:08:36;8.68;;;1.80;;
20794;SDS011;28087;-33.874;151.240;2023-02-08T04:11:13;7.75;;;1.67;;
20794;SDS011;28087;-33.874;151.240;2023-02-08T04:13:48;11.23;;;2.22;;
20794;SDS011;28087;-33.874;151.240;2023-02-08T04:16:23;8.27;;;1.98;;
20794;SDS011;28087;-33.874;151.240;2023-02-08T04:18:58;10.80;;;1.92;;
20794;SDS011;28087;-33.874;151.240;2023-02-08T04:21:32;9.85;;;1.95;;
20794;SDS011;28087;-33.874;151.240;2023-02-08T04:24:08;9.75;;;1.75;;
20794;SDS011;28087;-33.874;151.240;2023-02-08T04:26:45;8.60;;;1.63;;
20794;SDS011;28087;-33.874;151.240;2023-02-08T04:29:20;9.13;;;2.00;;
20794;SDS011;28087;-33.874;151.240;2023-02-08T04:31:57;7.93;;;2.13;;
20794;SDS011;28087;-33.874;151.240;2023-02-08T04:34:33;7.40;;;1.90;;
20794;SDS011;28087;-33.874;151.240;2023-02-08T04:37:11;11.90;;;2.08;;
20794;SDS011;28087;-33.874;151.240;2023-02-08T04:39:47;10.48;;;1.83;;
20794;SDS011;28087;-33.874;151.240;2023-02-08T04:42:27;9.80;;;2.00;;
20794;SDS011;28087;-33.874;151.240;2023-02-08T04:45:03;8.43;;;1.70;;
20794;SDS011;28087;-33.874;151.240;2023-02-08T04:47:39;14.63;;;2.20;;
20794;SDS011;28087;-33.874;151.240;2023-02-08T04:50:15;9.95;;;2.00;;
20794;SDS011;28087;-33.874;151.240;2023-02-08T04:52:50;10.38;;;1.92;;
20794;SDS011;28087;-33.874;151.240;2023-02-08T04:55:26;7.00;;;1.77;;
20794;SDS011;28087;-33.874;151.240;2023-02-08T04:58:02;7.10;;;1.70;;
20794;SDS011;28087;-33.874;151.240;2023-02-08T05:00:37;6.72;;;2.00;;
20794;SDS011;28087;-33.874;151.240;2023-02-08T05:03:13;9.02;;;2.00;;
20794;SDS011;28087;-33.874;151.240;2023-02-08T05:05:55;6.88;;;1.75;;
20794;SDS011;28087;-33.874;151.240;2023-02-08T05:08:30;10.93;;;2.00;;
20794;SDS011;28087;-33.874;151.240;2023-02-08T05:11:04;9.23;;;1.90;;
20794;SDS011;28087;-33.874;151.240;2023-02-08T05:13:44;12.25;;;2.20;;
20794;SDS011;28087;-33.874;151.240;2023-02-08T05:16:20;8.65;;;2.00;;
20794;SDS011;28087;-33.874;151.240;2023-02-08T05:18:58;7.72;;;1.60;;
20794;SDS011;28087;-33.874;151.240;2023-02-08T05:21:33;9.93;;;1.73;;
20794;SDS011;28087;-33.874;151.240;2023-02-08T05:24:08;7.00;;;1.70;;
20794;SDS011;28087;-33.874;151.240;2023-02-08T05:26:44;5.93;;;1.42;;
20794;SDS011;28087;-33.874;151.240;2023-02-08T05:29:20;7.78;;;1.60;;
20794;SDS011;28087;-33.874;151.240;2023-02-08T05:31:54;6.70;;;1.60;;
20794;SDS011;28087;-33.874;151.240;2023-02-08T05:34:30;6.93;;;1.50;;
20794;SDS011;28087;-33.874;151.240;2023-02-08T05:37:06;7.93;;;1.55;;
20794;SDS011;28087;-33.874;151.240;2023-02-08T05:39:41;10.38;;;2.00;;
20794;SDS011;28087;-33.874;151.240;2023-02-08T05:42:15;7.70;;;1.75;;
20794;SDS011;28087;-33.874;151.240;2023-02-08T05:44:52;9.02;;;1.40;;
20794;SDS011;28087;-33.874;151.240;2023-02-08T05:47:27;6.30;;;1.70;;
20794;SDS011;28087;-33.874;151.240;2023-02-08T05:50:03;11.05;;;1.95;;
20794;SDS011;28087;-33.874;151.240;2023-02-08T05:52:38;8.38;;;1.70;;
20794;SDS011;28087;-33.874;151.240;2023-02-08T05:55:12;8.38;;;1.77;;
20794;SDS011;28087;-33.874;151.240;2023-02-08T05:57:48;7.88;;;1.80;;
20794;SDS011;28087;-33.874;151.240;2023-02-08T06:00:25;9.20;;;1.92;;
20794;SDS011;28087;-33.874;151.240;2023-02-08T06:03:00;9.20;;;1.92;;
20794;SDS011;28087;-33.874;151.240;2023-02-08T06:05:36;9.30;;;2.00;;
20794;SDS011;28087;-33.874;151.240;2023-02-08T06:08:12;8.65;;;2.05;;
20794;SDS011;28087;-33.874;151.240;2023-02-08T06:10:48;9.40;;;1.90;;
20794;SDS011;28087;-33.874;151.240;2023-02-08T06:13:23;10.50;;;1.90;;
20794;SDS011;28087;-33.874;151.240;2023-02-08T06:16:01;12.98;;;1.90;;
20794;SDS011;28087;-33.874;151.240;2023-02-08T06:18:36;8.55;;;1.90;;
20794;SDS011;28087;-33.874;151.240;2023-02-08T06:21:11;5.97;;;1.83;;
20794;SDS011;28087;-33.874;151.240;2023-02-08T06:23:45;9.02;;;2.15;;
20794;SDS011;28087;-33.874;151.240;2023-02-08T06:26:20;12.40;;;2.67;;
20794;SDS011;28087;-33.874;151.240;2023-02-08T06:28:55;12.27;;;3.13;;
20794;SDS011;28087;-33.874;151.240;2023-02-08T06:31:33;12.13;;;2.95;;
20794;SDS011;28087;-33.874;151.240;2023-02-08T06:34:08;12.05;;;3.00;;
20794;SDS011;28087;-33.874;151.240;2023-02-08T06:36:43;9.90;;;2.58;;
20794;SDS011;28087;-33.874;151.240;2023-02-08T06:39:18;10.15;;;2.83;;
20794;SDS011;28087;-33.874;151.240;2023-02-08T06:41:53;11.65;;;2.90;;
20794;SDS011;28087;-33.874;151.240;2023-02-08T06:44:28;10.35;;;2.83;;
20794;SDS011;28087;-33.874;151.240;2023-02-08T06:47:04;9.90;;;2.60;;
20794;SDS011;28087;-33.874;151.240;2023-02-08T06:49:39;9.98;;;2.45;;
20794;SDS011;28087;-33.874;151.240;2023-02-08T06:52:14;11.70;;;2.92;;
20794;SDS011;28087;-33.874;151.240;2023-02-08T06:54:50;10.40;;;3.10;;
20794;SDS011;28087;-33.874;151.240;2023-02-08T06:57:25;10.30;;;2.63;;
20794;SDS011;28087;-33.874;151.240;2023-02-08T07:00:01;10.45;;;2.65;;
20794;SDS011;28087;-33.874;151.240;2023-02-08T07:02:37;10.18;;;2.47;;
20794;SDS011;28087;-33.874;151.240;2023-02-08T07:05:13;16.05;;;2.67;;
20794;SDS011;28087;-33.874;151.240;2023-02-08T07:07:50;8.50;;;2.60;;
20794;SDS011;28087;-33.874;151.240;2023-02-08T07:10:25;9.93;;;2.42;;
20794;SDS011;28087;-33.874;151.240;2023-02-08T07:13:01;10.70;;;3.15;;
20794;SDS011;28087;-33.874;151.240;2023-02-08T07:15:35;11.00;;;2.72;;
20794;SDS011;28087;-33.874;151.240;2023-02-08T07:18:13;13.85;;;3.53;;
20794;SDS011;28087;-33.874;151.240;2023-02-08T07:20:48;11.32;;;2.80;;
20794;SDS011;28087;-33.874;151.240;2023-02-08T07:23:23;10.15;;;2.72;;
20794;SDS011;28087;-33.874;151.240;2023-02-08T07:25:58;9.57;;;2.60;;
20794;SDS011;28087;-33.874;151.240;2023-02-08T07:28:33;9.40;;;2.35;;
20794;SDS011;28087;-33.874;151.240;2023-02-08T07:31:09;9.77;;;2.13;;
20794;SDS011;28087;-33.874;151.240;2023-02-08T07:33:45;6.88;;;2.40;;
20794;SDS011;28087;-33.874;151.240;2023-02-08T07:36:23;7.72;;;2.10;;
20794;SDS011;28087;-33.874;151.240;2023-02-08T07:38:58;10.85;;;2.45;;
20794;SDS011;28087;-33.874;151.240;2023-02-08T07:41:33;10.20;;;2.42;;
20794;SDS011;28087;-33.874;151.240;2023-02-08T07:44:08;8.45;;;2.28;;
20794;SDS011;28087;-33.874;151.240;2023-02-08T07:46:42;8.00;;;2.35;;
20794;SDS011;28087;-33.874;151.240;2023-02-08T07:49:19;8.18;;;2.30;;
20794;SDS011;28087;-33.874;151.240;2023-02-08T07:51:54;11.05;;;2.78;;
20794;SDS011;28087;-33.874;151.240;2023-02-08T07:54:29;10.05;;;2.40;;
20794;SDS011;28087;-33.874;151.240;2023-02-08T07:57:04;9.93;;;2.33;;
20794;SDS011;28087;-33.874;151.240;2023-02-08T07:59:39;9.63;;;2.28;;
20794;SDS011;28087;-33.874;151.240;2023-02-08T08:02:14;13.38;;;2.88;;
20794;SDS011;28087;-33.874;151.240;2023-02-08T08:04:51;6.10;;;1.90;;
20794;SDS011;28087;-33.874;151.240;2023-02-08T08:07:27;12.68;;;2.70;;
20794;SDS011;28087;-33.874;151.240;2023-02-08T08:10:05;9.35;;;2.30;;
20794;SDS011;28087;-33.874;151.240;2023-02-08T08:12:40;8.50;;;2.58;;
20794;SDS011;28087;-33.874;151.240;2023-02-08T08:15:15;10.10;;;2.30;;
20794;SDS011;28087;-33.874;151.240;2023-02-08T08:17:50;9.35;;;2.30;;
20794;SDS011;28087;-33.874;151.240;2023-02-08T08:20:27;8.73;;;2.38;;
20794;SDS011;28087;-33.874;151.240;2023-02-08T08:23:02;7.68;;;2.08;;
20794;SDS011;28087;-33.874;151.240;2023-02-08T08:25:37;9.57;;;1.90;;
20794;SDS011;28087;-33.874;151.240;2023-02-08T08:28:12;9.55;;;2.20;;
20794;SDS011;28087;-33.874;151.240;2023-02-08T08:30:47;11.05;;;2.42;;
20794;SDS011;28087;-33.874;151.240;2023-02-08T08:33:23;9.10;;;2.63;;
20794;SDS011;28087;-33.874;151.240;2023-02-08T08:35:59;10.30;;;2.30;;
20794;SDS011;28087;-33.874;151.240;2023-02-08T08:38:34;9.20;;;2.10;;
20794;SDS011;28087;-33.874;151.240;2023-02-08T08:41:10;7.95;;;2.00;;
20794;SDS011;28087;-33.874;151.240;2023-02-08T08:43:47;10.90;;;2.30;;
20794;SDS011;28087;-33.874;151.240;2023-02-08T08:46:21;7.80;;;2.20;;
20794;SDS011;28087;-33.874;151.240;2023-02-08T08:48:56;6.50;;;1.98;;
20794;SDS011;28087;-33.874;151.240;2023-02-08T08:51:33;8.05;;;2.20;;
20794;SDS011;28087;-33.874;151.240;2023-02-08T08:54:08;7.53;;;2.30;;
20794;SDS011;28087;-33.874;151.240;2023-02-08T08:56:43;8.32;;;2.00;;
20794;SDS011;28087;-33.874;151.240;2023-02-08T08:59:17;8.50;;;2.00;;
20794;SDS011;28087;-33.874;151.240;2023-02-08T09:01:57;7.40;;;1.70;;
20794;SDS011;28087;-33.874;151.240;2023-02-08T09:04:36;8.38;;;2.00;;
20794;SDS011;28087;-33.874;151.240;2023-02-08T09:07:13;6.25;;;1.80;;
20794;SDS011;28087;-33.874;151.240;2023-02-08T09:09:50;9.88;;;2.08;;
20794;SDS011;28087;-33.874;151.240;2023-02-08T09:12:26;6.22;;;1.90;;
20794;SDS011;28087;-33.874;151.240;2023-02-08T09:15:01;7.88;;;2.38;;
20794;SDS011;28087;-33.874;151.240;2023-02-08T09:17:36;8.30;;;2.03;;
20794;SDS011;28087;-33.874;151.240;2023-02-08T09:20:15;8.18;;;1.90;;
20794;SDS011;28087;-33.874;151.240;2023-02-08T09:22:53;9.45;;;2.13;;
20794;SDS011;28087;-33.874;151.240;2023-02-08T09:25:28;9.13;;;2.35;;
20794;SDS011;28087;-33.874;151.240;2023-02-08T09:28:04;6.80;;;1.95;;
20794;SDS011;28087;-33.874;151.240;2023-02-08T09:30:40;7.80;;;2.05;;
20794;SDS011;28087;-33.874;151.240;2023-02-08T09:33:15;8.70;;;2.30;;
20794;SDS011;28087;-33.874;151.240;2023-02-08T09:35:50;6.50;;;1.90;;
20794;SDS011;28087;-33.874;151.240;2023-02-08T09:38:27;7.78;;;1.98;;
20794;SDS011;28087;-33.874;151.240;2023-02-08T09:41:05;10.48;;;2.00;;
20794;SDS011;28087;-33.874;151.240;2023-02-08T09:43:44;9.10;;;2.33;;
20794;SDS011;28087;-33.874;151.240;2023-02-08T09:46:23;9.70;;;2.28;;
20794;SDS011;28087;-33.874;151.240;2023-02-08T09:48:59;10.60;;;2.63;;
20794;SDS011;28087;-33.874;151.240;2023-02-08T09:51:34;8.90;;;2.10;;
20794;SDS011;28087;-33.874;151.240;2023-02-08T09:54:14;10.13;;;2.65;;
20794;SDS011;28087;-33.874;151.240;2023-02-08T09:56:50;8.45;;;2.15;;
20794;SDS011;28087;-33.874;151.240;2023-02-08T09:59:26;9.18;;;2.28;;
20794;SDS011;28087;-33.874;151.240;2023-02-08T10:02:04;8.07;;;2.28;;
20794;SDS011;28087;-33.874;151.240;2023-02-08T10:04:50;7.78;;;2.30;;
20794;SDS011;28087;-33.874;151.240;2023-02-08T10:07:29;8.93;;;2.00;;
20794;SDS011;28087;-33.874;151.240;2023-02-08T10:10:06;11.90;;;2.38;;
20794;SDS011;28087;-33.874;151.240;2023-02-08T10:12:42;7.65;;;2.00;;
20794;SDS011;28087;-33.874;151.240;2023-02-08T10:15:22;8.13;;;2.00;;
20794;SDS011;28087;-33.874;151.240;2023-02-08T10:18:12;8.63;;;2.25;;
20794;SDS011;28087;-33.874;151.240;2023-02-08T10:20:58;8.15;;;2.10;;
20794;SDS011;28087;-33.874;151.240;2023-02-08T10:23:40;10.10;;;2.25;;
20794;SDS011;28087;-33.874;151.240;2023-02-08T10:26:22;7.32;;;1.92;;
20794;SDS011;28087;-33.874;151.240;2023-02-08T10:29:20;10.82;;;2.20;;
20794;SDS011;28087;-33.874;151.240;2023-02-08T10:32:13;6.68;;;2.10;;
20794;SDS011;28087;-33.874;151.240;2023-02-08T10:34:52;9.05;;;1.85;;
20794;SDS011;28087;-33.874;151.240;2023-02-08T10:37:28;8.23;;;2.10;;
20794;SDS011;28087;-33.874;151.240;2023-02-08T10:40:21;7.80;;;2.10;;
20794;SDS011;28087;-33.874;151.240;2023-02-08T10:43:11;7.10;;;2.13;;
20794;SDS011;28087;-33.874;151.240;2023-02-08T10:45:51;8.85;;;1.95;;
20794;SDS011;28087;-33.874;151.240;2023-02-08T10:48:30;7.90;;;2.10;;
20794;SDS011;28087;-33.874;151.240;2023-02-08T10:51:09;6.60;;;1.98;;
20794;SDS011;28087;-33.874;151.240;2023-02-08T10:53:45;9.52;;;1.90;;
20794;SDS011;28087;-33.874;151.240;2023-02-08T10:56:33;9.38;;;2.10;;
20794;SDS011;28087;-33.874;151.240;2023-02-08T10:59:21;9.02;;;2.25;;
20794;SDS011;28087;-33.874;151.240;2023-02-08T11:02:09;7.53;;;2.15;;
20794;SDS011;28087;-33.874;151.240;2023-02-08T11:05:02;10.07;;;2.30;;
20794;SDS011;28087;-33.874;151.240;2023-02-08T11:07:42;8.68;;;1.88;;
20794;SDS011;28087;-33.874;151.240;2023-02-08T11:10:23;8.60;;;2.08;;
20794;SDS011;28087;-33.874;151.240;2023-02-08T11:12:59;8.10;;;2.00;;
20794;SDS011;28087;-33.874;151.240;2023-02-08T11:15:38;7.68;;;1.88;;
20794;SDS011;28087;-33.874;151.240;2023-02-08T11:18:20;9.57;;;2.30;;
20794;SDS011;28087;-33.874;151.240;2023-02-08T11:20:56;8.75;;;1.90;;
20794;SDS011;28087;-33.874;151.240;2023-02-08T11:23:35;7.63;;;2.17;;
20794;SDS011;28087;-33.874;151.240;2023-02-08T11:26:17;9.40;;;1.88;;
20794;SDS011;28087;-33.874;151.240;2023-02-08T11:28:59;9.27;;;2.25;;
20794;SDS011;28087;-33.874;151.240;2023-02-08T11:31:38;7.82;;;2.22;;
20794;SDS011;28087;-33.874;151.240;2023-02-08T11:34:14;7.60;;;2.05;;
20794;SDS011;28087;-33.874;151.240;2023-02-08T11:37:04;7.57;;;1.92;;
20794;SDS011;28087;-33.874;151.240;2023-02-08T11:39:49;9.02;;;2.20;;
20794;SDS011;28087;-33.874;151.240;2023-02-08T11:42:28;11.07;;;2.40;;
20794;SDS011;28087;-33.874;151.240;2023-02-08T11:45:04;8.73;;;2.17;;
20794;SDS011;28087;-33.874;151.240;2023-02-08T11:47:44;11.45;;;2.22;;
20794;SDS011;28087;-33.874;151.240;2023-02-08T11:50:28;9.82;;;2.08;;
20794;SDS011;28087;-33.874;151.240;2023-02-08T11:53:04;7.55;;;1.98;;
20794;SDS011;28087;-33.874;151.240;2023-02-08T11:55:39;5.75;;;1.83;;
20794;SDS011;28087;-33.874;151.240;2023-02-08T11:58:18;7.97;;;2.03;;
20794;SDS011;28087;-33.874;151.240;2023-02-08T12:00:57;7.65;;;1.90;;
20794;SDS011;28087;-33.874;151.240;2023-02-08T12:03:36;7.65;;;1.83;;
20794;SDS011;28087;-33.874;151.240;2023-02-08T12:06:18;5.50;;;1.67;;
20794;SDS011;28087;-33.874;151.240;2023-02-08T12:08:57;7.35;;;1.90;;
20794;SDS011;28087;-33.874;151.240;2023-02-08T12:11:35;8.15;;;2.10;;
20794;SDS011;28087;-33.874;151.240;2023-02-08T12:14:18;9.60;;;2.20;;
20794;SDS011;28087;-33.874;151.240;2023-02-08T12:16:59;7.65;;;2.13;;
20794;SDS011;28087;-33.874;151.240;2023-02-08T12:22:27;11.60;;;2.10;;
20794;SDS011;28087;-33.874;151.240;2023-02-08T12:25:08;7.18;;;1.90;;
20794;SDS011;28087;-33.874;151.240;2023-02-08T12:27:49;8.35;;;1.90;;
20794;SDS011;28087;-33.874;151.240;2023-02-08T12:30:28;11.27;;;2.00;;
20794;SDS011;28087;-33.874;151.240;2023-02-08T12:33:08;9.32;;;2.03;;
20794;SDS011;28087;-33.874;151.240;2023-02-08T12:36:01;7.95;;;2.10;;
20794;SDS011;28087;-33.874;151.240;2023-02-08T12:38:49;9.30;;;2.00;;
20794;SDS011;28087;-33.874;151.240;2023-02-08T12:41:53;6.78;;;1.73;;
20794;SDS011;28087;-33.874;151.240;2023-02-08T12:44:37;8.27;;;1.83;;
20794;SDS011;28087;-33.874;151.240;2023-02-08T12:47:17;8.60;;;1.98;;
20794;SDS011;28087;-33.874;151.240;2023-02-08T12:49:57;9.07;;;1.90;;
20794;SDS011;28087;-33.874;151.240;2023-02-08T12:52:38;7.03;;;1.85;;
20794;SDS011;28087;-33.874;151.240;2023-02-08T12:55:20;6.95;;;1.75;;
20794;SDS011;28087;-33.874;151.240;2023-02-08T12:57:56;9.13;;;1.95;;
20794;SDS011;28087;-33.874;151.240;2023-02-08T13:00:33;10.38;;;2.13;;
20794;SDS011;28087;-33.874;151.240;2023-02-08T13:03:11;9.48;;;2.13;;
20794;SDS011;28087;-33.874;151.240;2023-02-08T13:05:49;10.70;;;2.00;;
20794;SDS011;28087;-33.874;151.240;2023-02-08T13:08:31;8.15;;;1.90;;
20794;SDS011;28087;-33.874;151.240;2023-02-08T13:11:13;11.15;;;2.17;;
20794;SDS011;28087;-33.874;151.240;2023-02-08T13:13:51;8.30;;;1.95;;
20794;SDS011;28087;-33.874;151.240;2023-02-08T13:16:27;7.25;;;1.70;;
20794;SDS011;28087;-33.874;151.240;2023-02-08T13:19:16;9.10;;;2.17;;
20794;SDS011;28087;-33.874;151.240;2023-02-08T13:21:53;11.25;;;2.30;;
20794;SDS011;28087;-33.874;151.240;2023-02-08T13:24:32;9.40;;;1.90;;
20794;SDS011;28087;-33.874;151.240;2023-02-08T13:27:10;7.97;;;2.20;;
20794;SDS011;28087;-33.874;151.240;2023-02-08T13:29:48;9.93;;;1.95;;
20794;SDS011;28087;-33.874;151.240;2023-02-08T13:32:26;10.88;;;1.90;;
20794;SDS011;28087;-33.874;151.240;2023-02-08T13:35:03;8.52;;;2.05;;
20794;SDS011;28087;-33.874;151.240;2023-02-08T13:37:40;8.57;;;1.80;;
20794;SDS011;28087;-33.874;151.240;2023-02-08T13:40:17;8.48;;;2.10;;
20794;SDS011;28087;-33.874;151.240;2023-02-08T13:43:00;7.30;;;1.80;;
20794;SDS011;28087;-33.874;151.240;2023-02-08T13:45:36;9.00;;;2.53;;
20794;SDS011;28087;-33.874;151.240;2023-02-08T13:48:13;6.45;;;1.70;;
20794;SDS011;28087;-33.874;151.240;2023-02-08T13:50:49;9.18;;;1.73;;
20794;SDS011;28087;-33.874;151.240;2023-02-08T13:56:35;8.13;;;1.90;;
20794;SDS011;28087;-33.874;151.240;2023-02-08T14:02:23;11.80;;;1.85;;
20794;SDS011;28087;-33.874;151.240;2023-02-08T14:07:47;10.07;;;2.00;;
20794;SDS011;28087;-33.874;151.240;2023-02-08T14:10:24;11.20;;;2.20;;
20794;SDS011;28087;-33.874;151.240;2023-02-08T14:13:14;18.25;;;3.00;;
20794;SDS011;28087;-33.874;151.240;2023-02-08T14:18:49;11.82;;;2.03;;
20794;SDS011;28087;-33.874;151.240;2023-02-08T14:21:33;8.25;;;1.92;;
20794;SDS011;28087;-33.874;151.240;2023-02-08T14:24:18;7.43;;;2.00;;
20794;SDS011;28087;-33.874;151.240;2023-02-08T14:27:04;10.85;;;2.22;;
20794;SDS011;28087;-33.874;151.240;2023-02-08T14:29:39;8.07;;;2.03;;
20794;SDS011;28087;-33.874;151.240;2023-02-08T14:32:21;6.85;;;1.67;;
20794;SDS011;28087;-33.874;151.240;2023-02-08T14:35:02;14.10;;;2.50;;
20794;SDS011;28087;-33.874;151.240;2023-02-08T14:37:42;10.77;;;2.00;;
20794;SDS011;28087;-33.874;151.240;2023-02-08T14:40:32;11.50;;;2.05;;
20794;SDS011;28087;-33.874;151.240;2023-02-08T14:45:55;13.85;;;3.15;;
20794;SDS011;28087;-33.874;151.240;2023-02-08T14:48:31;11.70;;;3.13;;
20794;SDS011;28087;-33.874;151.240;2023-02-08T14:51:14;21.55;;;3.10;;
20794;SDS011;28087;-33.874;151.240;2023-02-08T14:53:50;15.05;;;3.35;;
20794;SDS011;28087;-33.874;151.240;2023-02-08T14:56:26;11.65;;;2.67;;
20794;SDS011;28087;-33.874;151.240;2023-02-08T14:59:04;12.70;;;2.55;;
20794;SDS011;28087;-33.874;151.240;2023-02-08T15:01:40;12.23;;;2.78;;
20794;SDS011;28087;-33.874;151.240;2023-02-08T15:04:19;25.05;;;4.28;;
20794;SDS011;28087;-33.874;151.240;2023-02-08T15:09:57;50.30;;;7.03;;
20794;SDS011;28087;-33.874;151.240;2023-02-08T15:12:36;28.05;;;5.10;;
20794;SDS011;28087;-33.874;151.240;2023-02-08T15:15:22;37.53;;;5.03;;
20794;SDS011;28087;-33.874;151.240;2023-02-08T15:17:57;29.42;;;5.03;;
20794;SDS011;28087;-33.874;151.240;2023-02-08T15:20:34;28.75;;;4.85;;
20794;SDS011;28087;-33.874;151.240;2023-02-08T15:23:17;31.05;;;5.13;;
20794;SDS011;28087;-33.874;151.240;2023-02-08T15:25:57;26.38;;;4.47;;
20794;SDS011;28087;-33.874;151.240;2023-02-08T15:28:34;19.33;;;4.00;;
20794;SDS011;28087;-33.874;151.240;2023-02-08T15:31:13;20.73;;;4.00;;
20794;SDS011;28087;-33.874;151.240;2023-02-08T15:33:50;20.55;;;4.28;;
20794;SDS011;28087;-33.874;151.240;2023-02-08T15:36:30;20.38;;;4.13;;
20794;SDS011;28087;-33.874;151.240;2023-02-08T15:39:16;28.10;;;4.15;;